Geneva, Texas
Current Conditions -  °F | °C
As of 11:56 AM on Monday 24 Nov 2014 (Local Time) from KAQV Reporting Station
Clear Clear  
Wind Chill: 61°   Ceiling: Unl
Heat Index: 61°   Visibility: 10mi
Dew Point: 34°   Wind: 5mph
Humidity: 36%   Direction: NA
Pressure: 29.98"   Gusts: 18mph
Location:  31.48°N, 93.92°W
Report Text: KAQV 241756Z AUTO VRB04G16KT 10SM CLR 16/01 A2998 RMK AO2 SLP150 6//// T01610011 10161 20089 50003
Loading
Personal Weather Stations






























Interactive Weather Map New forecast layout! Learn more

10-Day Weather Forecast

Advertisements
Track Severe Weather on mobile